createdAt,value
2023-04-19T00:00:04.777Z,1002.02
2023-04-19T00:01:05.377Z,1002.06
2023-04-19T00:02:04.855Z,1002.03
2023-04-19T00:03:04.964Z,1001.99
2023-04-19T00:04:06.545Z,1001.99
2023-04-19T00:05:05.143Z,1001.97
2023-04-19T00:06:04.751Z,1001.97
2023-04-19T00:07:04.733Z,1001.96
2023-04-19T00:08:04.728Z,1001.96
2023-04-19T00:09:04.712Z,1001.93
2023-04-19T00:10:04.720Z,1001.94
2023-04-19T00:11:04.712Z,1001.94
2023-04-19T00:12:04.689Z,1001.94
2023-04-19T00:13:04.695Z,1001.95
2023-04-19T00:14:04.665Z,1001.93
2023-04-19T00:15:04.652Z,1001.94
2023-04-19T00:16:04.660Z,1001.95
2023-04-19T00:17:04.754Z,1001.89
2023-04-19T00:18:04.680Z,1001.87
2023-04-19T00:19:04.652Z,1001.88
2023-04-19T00:20:04.636Z,1001.86
2023-04-19T00:21:06.468Z,1001.89
2023-04-19T00:22:54.169Z,1001.82
2023-04-19T00:23:54.179Z,1001.84
2023-04-19T00:24:54.151Z,1001.81
2023-04-19T00:25:54.097Z,1001.77
2023-04-19T00:26:54.101Z,1001.77
2023-04-19T00:27:54.081Z,1001.78
2023-04-19T00:28:54.086Z,1001.81
2023-04-19T00:29:54.075Z,1001.79
2023-04-19T00:30:54.106Z,1001.77
2023-04-19T00:31:55.170Z,1001.78
2023-04-19T00:32:55.156Z,1001.72
2023-04-19T00:33:55.128Z,1001.78
2023-04-19T00:34:56.985Z,1001.74
2023-04-19T00:35:55.125Z,1001.67
2023-04-19T00:36:55.248Z,1001.69
2023-04-19T00:37:55.265Z,1001.72
2023-04-19T00:38:55.123Z,1001.69
2023-04-19T00:39:55.089Z,1001.68
2023-04-19T00:40:55.076Z,1001.70
2023-04-19T00:41:55.071Z,1001.69
2023-04-19T00:42:55.057Z,1001.71
2023-04-19T00:43:56.580Z,1001.71
2023-04-19T00:44:55.069Z,1001.70
2023-04-19T00:45:55.070Z,1001.71
2023-04-19T00:46:55.026Z,1001.74
2023-04-19T00:47:55.061Z,1001.70
2023-04-19T00:48:55.014Z,1001.70
2023-04-19T00:49:55.147Z,1001.70
2023-04-19T00:50:54.995Z,1001.69
2023-04-19T00:51:55.028Z,1001.63
2023-04-19T00:52:57.575Z,1001.65
2023-04-19T00:53:54.973Z,1001.64
2023-04-19T00:54:54.980Z,1001.65
2023-04-19T00:55:54.963Z,1001.60
2023-04-19T00:56:54.957Z,1001.66
2023-04-19T00:57:54.958Z,1001.62
2023-04-19T00:58:54.943Z,1001.64
2023-04-19T00:59:54.935Z,1001.63
2023-04-19T01:00:56.568Z,1001.65
2023-04-19T01:01:54.938Z,1001.61
2023-04-19T01:02:55.073Z,1001.61
2023-04-19T01:03:54.952Z,1001.60
2023-04-19T01:04:54.906Z,1001.62
2023-04-19T01:05:54.948Z,1001.52
2023-04-19T01:06:54.873Z,1001.51
2023-04-19T01:07:55.161Z,1001.52
2023-04-19T01:08:54.858Z,1001.54
2023-04-19T01:09:54.850Z,1001.47
2023-04-19T01:10:54.861Z,1001.51
2023-04-19T01:11:54.842Z,1001.46
2023-04-19T01:12:54.828Z,1001.50
2023-04-19T01:13:54.807Z,1001.44
2023-04-19T01:14:54.816Z,1001.44
2023-04-19T01:15:54.853Z,1001.49
2023-04-19T01:16:54.800Z,1001.51
2023-04-19T01:17:54.837Z,1001.51
2023-04-19T01:18:55.599Z,1001.46
2023-04-19T01:19:54.769Z,1001.44
2023-04-19T01:20:54.746Z,1001.45
2023-04-19T01:21:54.797Z,1001.42
2023-04-19T01:22:54.754Z,1001.45
2023-04-19T01:23:54.736Z,1001.45
2023-04-19T01:24:54.735Z,1001.48
2023-04-19T01:25:54.734Z,1001.44
2023-04-19T01:26:54.729Z,1001.47
2023-04-19T01:27:54.728Z,1001.48
2023-04-19T01:28:54.721Z,1001.42
2023-04-19T01:29:54.856Z,1001.41
2023-04-19T01:30:54.732Z,1001.38
2023-04-19T01:31:54.666Z,1001.42
2023-04-19T01:32:54.672Z,1001.36
2023-04-19T01:33:54.653Z,1001.37
2023-04-19T01:34:54.635Z,1001.37
2023-04-19T01:35:54.644Z,1001.34
2023-04-19T01:36:54.641Z,1001.37
2023-04-19T01:37:54.638Z,1001.36
2023-04-19T01:38:54.606Z,1001.37
2023-04-19T01:39:55.496Z,1001.34
2023-04-19T01:40:55.489Z,1001.33
2023-04-19T01:41:54.613Z,1001.35
2023-04-19T01:42:54.581Z,1001.27
2023-04-19T01:43:54.573Z,1001.32
2023-04-19T01:44:54.565Z,1001.38
2023-04-19T01:45:54.551Z,1001.34
2023-04-19T01:46:55.533Z,1001.32
2023-04-19T01:47:54.580Z,1001.33
2023-04-19T01:48:54.546Z,1001.30
2023-04-19T01:49:55.564Z,1001.26
2023-04-19T01:50:54.535Z,1001.31
2023-04-19T01:51:54.525Z,1001.29
2023-04-19T01:52:54.518Z,1001.28
2023-04-19T01:53:54.504Z,1001.26
2023-04-19T01:54:54.497Z,1001.21
2023-04-19T01:55:54.489Z,1001.26
2023-04-19T01:56:54.480Z,1001.22
2023-04-19T01:57:54.669Z,1001.23
2023-04-19T01:58:55.463Z,1001.18
2023-04-19T01:59:54.456Z,1001.17
2023-04-19T02:00:54.503Z,1001.21
2023-04-19T02:01:54.465Z,1001.20
2023-04-19T02:02:54.522Z,1001.23
2023-04-19T02:03:54.589Z,1001.20
2023-04-19T02:04:55.406Z,1001.23
2023-04-19T02:05:54.412Z,1001.20
2023-04-19T02:06:54.417Z,1001.18
2023-04-19T02:07:54.402Z,1001.20
2023-04-19T02:08:54.377Z,1001.14
2023-04-19T02:09:54.382Z,1001.14
2023-04-19T02:10:54.382Z,1001.21
2023-04-19T02:11:54.360Z,1001.14
2023-04-19T02:12:54.355Z,1001.20
2023-04-19T02:13:54.342Z,1001.21
2023-04-19T02:14:54.344Z,1001.18
2023-04-19T02:15:54.410Z,1001.16
2023-04-19T02:16:54.408Z,1001.18
2023-04-19T02:17:54.345Z,1001.19
2023-04-19T02:18:54.340Z,1001.17
2023-04-19T02:19:54.297Z,1001.09
2023-04-19T02:20:54.287Z,1001.17
2023-04-19T02:21:54.280Z,1001.14
2023-04-19T02:22:54.271Z,1001.10
2023-04-19T02:23:54.263Z,1001.12
2023-04-19T02:24:54.269Z,1001.09
2023-04-19T02:25:54.259Z,1001.14
2023-04-19T02:26:54.247Z,1001.10
2023-04-19T02:27:54.232Z,1001.12
2023-04-19T02:28:54.217Z,1001.06
2023-04-19T02:29:54.215Z,1001.10
2023-04-19T02:30:54.230Z,1001.07
2023-04-19T02:31:54.258Z,1001.04
2023-04-19T02:32:54.220Z,1001.02
2023-04-19T02:33:54.220Z,1001.03
2023-04-19T02:34:54.177Z,1001.09
2023-04-19T02:35:54.156Z,1001.09
2023-04-19T02:36:54.160Z,1001.07
2023-04-19T02:37:55.014Z,1001.04
2023-04-19T02:38:54.156Z,1001.02
2023-04-19T02:39:54.141Z,1001.04
2023-04-19T02:40:54.135Z,1001.03
2023-04-19T02:41:54.117Z,1001.04
2023-04-19T02:42:54.126Z,1000.97
2023-04-19T02:43:54.128Z,1001.04
2023-04-19T02:44:54.125Z,1001.02
2023-04-19T02:45:55.116Z,1001.10
2023-04-19T02:46:54.097Z,1001.08
2023-04-19T02:47:54.094Z,1000.98
2023-04-19T02:48:54.057Z,1001.09
2023-04-19T02:49:54.051Z,1001.03
2023-04-19T02:50:54.051Z,1000.98
2023-04-19T02:51:54.031Z,1001.01
2023-04-19T02:52:54.031Z,1001.02
2023-04-19T02:53:54.010Z,1001.02
2023-04-19T02:54:54.011Z,1001.04
2023-04-19T02:55:54.003Z,1001.06
2023-04-19T02:56:54.001Z,1001.01
2023-04-19T02:57:53.989Z,1001.00
2023-04-19T02:58:53.971Z,1000.97
2023-04-19T02:59:53.982Z,1001.04
2023-04-19T03:00:54.657Z,1000.94
2023-04-19T03:01:53.953Z,1000.99
2023-04-19T03:02:54.081Z,1001.00
2023-04-19T03:03:53.995Z,1000.90
2023-04-19T03:04:53.933Z,1000.97
2023-04-19T03:05:53.930Z,1000.89
2023-04-19T03:06:53.950Z,1001.02
2023-04-19T03:07:53.897Z,1000.97
2023-04-19T03:08:53.909Z,1000.95
2023-04-19T03:09:53.892Z,1000.91
2023-04-19T03:10:53.868Z,1000.92
2023-04-19T03:11:54.517Z,1000.89
2023-04-19T03:12:53.872Z,1000.97
2023-04-19T03:13:53.857Z,1000.95
2023-04-19T03:14:53.866Z,1000.96
2023-04-19T03:15:53.866Z,1000.96
2023-04-19T03:16:53.829Z,1000.94
2023-04-19T03:17:53.895Z,1001.00
2023-04-19T03:18:53.822Z,1000.91
2023-04-19T03:19:53.795Z,1000.90
2023-04-19T03:20:53.800Z,1000.91
2023-04-19T03:21:53.806Z,1000.97
2023-04-19T03:22:53.780Z,1000.96
2023-04-19T03:23:53.791Z,1000.94
2023-04-19T03:24:53.769Z,1000.87
2023-04-19T03:25:54.516Z,1000.83
2023-04-19T03:26:53.750Z,1000.81
2023-04-19T03:27:53.734Z,1000.78
2023-04-19T03:28:53.765Z,1000.83
2023-04-19T03:29:53.837Z,1000.86
2023-04-19T03:30:53.753Z,1000.82
2023-04-19T03:31:54.529Z,1000.85
2023-04-19T03:32:53.711Z,1000.90
2023-04-19T03:33:53.699Z,1000.92
2023-04-19T03:34:53.676Z,1000.82
2023-04-19T03:35:53.653Z,1000.78
2023-04-19T03:36:53.667Z,1000.81
2023-04-19T03:37:54.517Z,1000.86
2023-04-19T03:38:53.656Z,1000.82
2023-04-19T03:39:53.630Z,1000.81
2023-04-19T03:40:53.614Z,1000.82
2023-04-19T03:41:53.624Z,1000.81
2023-04-19T03:42:53.621Z,1000.83
2023-04-19T03:43:53.606Z,1000.75
2023-04-19T03:44:53.604Z,1000.81
2023-04-19T03:45:53.603Z,1000.75
2023-04-19T03:46:53.567Z,1000.73
2023-04-19T03:47:53.618Z,1000.78
2023-04-19T03:48:53.562Z,1000.76
2023-04-19T03:49:53.578Z,1000.71
2023-04-19T03:50:53.547Z,1000.70
2023-04-19T03:51:53.551Z,1000.73
2023-04-19T03:52:53.533Z,1000.72
2023-04-19T03:53:53.547Z,1000.70
2023-04-19T03:54:53.520Z,1000.68
2023-04-19T03:55:53.528Z,1000.66
2023-04-19T03:56:53.526Z,1000.66
2023-04-19T03:57:53.492Z,1000.70
2023-04-19T03:58:54.014Z,1000.71
2023-04-19T03:59:53.502Z,1000.74
2023-04-19T04:00:53.470Z,1000.68
2023-04-19T04:01:53.478Z,1000.67
2023-04-19T04:02:53.646Z,1000.74
2023-04-19T04:03:54.267Z,1000.73
2023-04-19T04:04:53.609Z,1000.71
2023-04-19T04:05:53.440Z,1000.74
2023-04-19T04:06:53.412Z,1000.78
2023-04-19T04:07:53.413Z,1000.73
2023-04-19T04:08:53.403Z,1000.78
2023-04-19T04:09:53.385Z,1000.80
2023-04-19T04:10:53.397Z,1000.81
2023-04-19T04:11:53.404Z,1000.85
2023-04-19T04:12:53.371Z,1000.83
2023-04-19T04:13:53.352Z,1000.86
2023-04-19T04:14:53.359Z,1000.89
2023-04-19T04:15:53.413Z,1000.83
2023-04-19T04:16:53.353Z,1000.91
2023-04-19T04:17:53.434Z,1000.93
2023-04-19T04:18:53.389Z,1000.92
2023-04-19T04:19:53.328Z,1000.94
2023-04-19T04:20:53.300Z,1001.01
2023-04-19T04:21:54.015Z,1000.92
2023-04-19T04:22:53.290Z,1000.96
2023-04-19T04:23:53.337Z,1000.93
2023-04-19T04:24:53.278Z,1000.93
2023-04-19T04:25:53.259Z,1000.93
2023-04-19T04:26:55.129Z,1000.91
2023-04-19T04:27:53.243Z,1000.92
2023-04-19T04:28:53.240Z,1000.96
2023-04-19T04:29:53.233Z,1000.96
2023-04-19T04:30:53.217Z,1000.96
2023-04-19T04:31:53.275Z,1000.89
2023-04-19T04:32:53.286Z,1000.94
2023-04-19T04:33:53.336Z,1000.91
2023-04-19T04:34:53.227Z,1000.93
2023-04-19T04:35:53.210Z,1000.96
2023-04-19T04:36:53.214Z,1001.00
2023-04-19T04:37:53.211Z,1001.00
2023-04-19T04:38:53.187Z,1000.87
2023-04-19T04:39:53.188Z,1000.89
2023-04-19T04:40:54.059Z,1000.87
2023-04-19T04:41:53.233Z,1000.88
2023-04-19T04:42:53.148Z,1000.86
2023-04-19T04:44:08.242Z,1001.02
2023-04-19T04:44:55.126Z,1000.95
2023-04-19T04:45:54.151Z,1000.87
2023-04-19T04:46:53.657Z,1000.90
2023-04-19T04:47:53.134Z,1000.95
2023-04-19T04:48:53.098Z,1000.83
2023-04-19T04:49:53.217Z,1000.83
2023-04-19T04:50:55.044Z,1000.90
2023-04-19T04:51:53.085Z,1000.89
2023-04-19T04:52:53.088Z,1000.92
2023-04-19T04:53:53.109Z,1000.96
2023-04-19T04:54:53.068Z,1000.82
2023-04-19T04:55:53.062Z,1000.83
2023-04-19T04:56:53.077Z,1000.78
2023-04-19T04:57:53.052Z,1000.98
2023-04-19T04:58:53.042Z,1000.84
2023-04-19T04:59:53.043Z,1000.89
2023-04-19T05:00:53.072Z,1000.99
2023-04-19T05:01:52.992Z,1001.06
2023-04-19T05:02:53.138Z,1000.84
2023-04-19T05:03:53.020Z,1000.94
2023-04-19T05:04:54.548Z,1000.87
2023-04-19T05:05:52.982Z,1001.01
2023-04-19T05:06:52.968Z,1000.96
2023-04-19T05:07:52.957Z,1000.89
2023-04-19T05:08:54.633Z,1000.87
2023-04-19T05:09:52.951Z,1000.97
2023-04-19T05:10:52.916Z,1000.95
2023-04-19T05:11:53.933Z,1000.91
2023-04-19T05:12:53.550Z,1000.87
2023-04-19T05:13:52.906Z,1000.87
2023-04-19T05:14:52.943Z,1000.96
2023-04-19T05:15:54.732Z,1000.99
2023-04-19T05:16:58.588Z,1000.88
2023-04-19T05:17:52.901Z,1000.95
2023-04-19T05:18:52.865Z,1000.99
2023-04-19T05:19:53.667Z,1000.91
2023-04-19T05:20:52.846Z,1000.88
2023-04-19T05:21:52.870Z,1000.83
2023-04-19T05:22:52.850Z,1000.85
2023-04-19T05:23:52.834Z,1000.88
2023-04-19T05:24:52.834Z,1000.95
2023-04-19T05:25:52.813Z,1000.93
2023-04-19T05:26:52.839Z,1000.95
2023-04-19T05:27:53.801Z,1000.86
2023-04-19T05:28:52.780Z,1000.89
2023-04-19T05:29:54.557Z,1000.90
2023-04-19T05:30:55.597Z,1000.92
2023-04-19T05:31:52.825Z,1000.85
2023-04-19T05:32:52.874Z,1000.91
2023-04-19T05:33:52.773Z,1000.86
2023-04-19T05:34:54.575Z,1001.00
2023-04-19T05:35:52.741Z,1000.88
2023-04-19T05:36:54.561Z,1000.88
2023-04-19T05:37:53.729Z,1000.85
2023-04-19T05:38:52.751Z,1000.83
2023-04-19T05:39:52.709Z,1000.89
2023-04-19T05:40:52.702Z,1001.00
2023-04-19T05:41:52.688Z,1000.93
2023-04-19T05:42:52.679Z,1000.82
2023-04-19T05:43:52.731Z,1000.85
2023-04-19T05:44:52.658Z,1000.89
2023-04-19T05:45:53.591Z,1000.85
2023-04-19T05:46:52.672Z,1000.85
2023-04-19T05:47:53.409Z,1000.79
2023-04-19T05:48:54.144Z,1000.93
2023-04-19T05:49:54.146Z,1000.79
2023-04-19T05:50:52.647Z,1000.84
2023-04-19T05:51:55.083Z,1000.81
2023-04-19T05:52:52.611Z,1000.75
2023-04-19T05:53:56.655Z,1000.86
2023-04-19T05:54:55.559Z,1000.76
2023-04-19T05:55:55.588Z,1000.80
2023-04-19T05:56:52.567Z,1000.83
2023-04-19T05:57:54.202Z,1000.78
2023-04-19T05:59:27.128Z,1000.90
2023-04-19T05:59:52.584Z,1000.86
2023-04-19T06:00:52.575Z,1000.71
2023-04-19T06:01:52.526Z,1000.70
2023-04-19T06:02:52.701Z,1000.79
2023-04-19T06:03:52.957Z,1000.84
2023-04-19T06:04:53.250Z,1000.79
2023-04-19T06:05:52.522Z,1000.80
2023-04-19T06:06:52.476Z,1000.72
2023-04-19T06:07:55.639Z,1000.82
2023-04-19T06:08:55.113Z,1000.71
2023-04-19T06:09:53.542Z,1000.79
2023-04-19T06:10:57.117Z,1000.77
2023-04-19T06:11:54.464Z,1000.92
2023-04-19T06:12:52.440Z,1000.92
2023-04-19T06:13:52.697Z,1000.74
2023-04-19T06:14:52.461Z,1000.75
2023-04-19T06:15:52.499Z,1000.65
2023-04-19T06:16:52.406Z,1000.76
2023-04-19T06:17:52.412Z,1000.76
2023-04-19T06:18:52.402Z,1000.78
2023-04-19T06:19:52.380Z,1000.92
2023-04-19T06:20:52.435Z,1000.76
2023-04-19T06:21:52.478Z,1000.85
2023-04-19T06:22:52.370Z,1000.82
2023-04-19T06:23:52.349Z,1000.88
2023-04-19T06:24:52.390Z,1000.86
2023-04-19T06:25:52.353Z,1000.85
2023-04-19T06:26:52.325Z,1000.81
2023-04-19T06:27:52.336Z,1000.85
2023-04-19T06:28:52.314Z,1000.94
2023-04-19T06:29:52.348Z,1001.03
2023-04-19T06:30:53.203Z,1000.88
2023-04-19T06:31:52.332Z,1000.97
2023-04-19T06:32:52.305Z,1000.82
2023-04-19T06:33:52.267Z,1000.86
2023-04-19T06:34:52.270Z,1000.84
2023-04-19T06:35:52.247Z,1000.82
2023-04-19T06:36:53.109Z,1000.90
2023-04-19T06:37:52.275Z,1000.85
2023-04-19T06:38:52.237Z,1000.90
2023-04-19T06:39:52.227Z,1000.98
2023-04-19T06:40:52.311Z,1000.98
2023-04-19T06:41:52.231Z,1001.02
2023-04-19T06:42:52.218Z,1001.02
2023-04-19T06:43:52.208Z,1000.95
2023-04-19T06:44:52.189Z,1000.95
2023-04-19T06:45:52.209Z,1001.05
2023-04-19T06:46:52.180Z,1000.92
2023-04-19T06:47:53.332Z,1001.12
2023-04-19T06:48:52.203Z,1001.07
2023-04-19T06:49:52.158Z,1000.98
2023-04-19T06:50:52.137Z,1000.94
2023-04-19T06:51:52.164Z,1001.01
2023-04-19T06:52:52.142Z,1000.92
2023-04-19T06:53:52.693Z,1001.03
2023-04-19T06:54:52.123Z,1001.21
2023-04-19T06:55:52.130Z,1001.04
2023-04-19T06:56:52.119Z,1001.04
2023-04-19T06:57:52.120Z,1001.00
2023-04-19T06:58:52.100Z,1000.98
2023-04-19T06:59:53.277Z,1000.89
2023-04-19T07:00:52.061Z,1000.97
2023-04-19T07:01:52.757Z,1001.05
2023-04-19T07:02:52.196Z,1001.04
2023-04-19T07:03:53.105Z,1001.00
2023-04-19T07:04:52.570Z,1001.09
2023-04-19T07:05:52.063Z,1001.09
2023-04-19T07:06:52.076Z,1000.97
2023-04-19T07:07:52.247Z,1001.04
2023-04-19T07:08:51.998Z,1001.02
2023-04-19T07:09:53.005Z,1000.97
2023-04-19T07:10:51.981Z,1001.00
2023-04-19T07:11:51.988Z,1001.00
2023-04-19T07:12:52.062Z,1001.02
2023-04-19T07:13:51.953Z,1001.03
2023-04-19T07:14:51.950Z,1001.00
2023-04-19T07:15:51.997Z,1001.05
2023-04-19T07:16:52.753Z,1001.20
2023-04-19T07:17:51.993Z,1000.94
2023-04-19T07:18:51.908Z,1000.93
2023-04-19T07:19:51.904Z,1000.95
2023-04-19T07:20:51.910Z,1000.91
2023-04-19T07:21:51.907Z,1000.85
2023-04-19T07:22:51.924Z,1000.89
2023-04-19T07:23:52.713Z,1000.84
2023-04-19T07:24:51.866Z,1000.91
2023-04-19T07:25:51.904Z,1000.89
2023-04-19T07:26:51.867Z,1000.87
2023-04-19T07:27:52.705Z,1000.97
2023-04-19T07:28:51.848Z,1000.79
2023-04-19T07:29:51.828Z,1000.73
2023-04-19T07:30:51.819Z,1000.76
2023-04-19T07:31:51.808Z,1000.87
2023-04-19T07:32:51.961Z,1000.67
2023-04-19T07:33:52.610Z,1000.83
2023-04-19T07:34:51.810Z,1000.71
2023-04-19T07:35:51.806Z,1000.85
2023-04-19T07:36:52.033Z,1000.76
2023-04-19T07:37:51.766Z,1000.87
2023-04-19T07:38:51.798Z,1000.72
2023-04-19T07:39:51.745Z,1000.98
2023-04-19T07:40:53.644Z,1000.89
2023-04-19T07:41:51.896Z,1000.84
2023-04-19T07:42:51.780Z,1000.87
2023-04-19T07:43:51.735Z,1000.90
2023-04-19T07:44:52.705Z,1000.76
2023-04-19T07:45:51.726Z,1000.73
2023-04-19T07:46:51.793Z,1000.78
2023-04-19T07:47:53.391Z,1000.75
2023-04-19T07:48:51.697Z,1000.74
2023-04-19T07:49:51.675Z,1000.66
2023-04-19T07:50:51.677Z,1000.67
2023-04-19T07:51:51.660Z,1000.80
2023-04-19T07:52:51.654Z,1000.71
2023-04-19T07:53:51.634Z,1000.74
2023-04-19T07:54:51.657Z,1000.62
2023-04-19T07:55:51.664Z,1000.63
2023-04-19T07:56:51.690Z,1000.60
2023-04-19T07:57:51.623Z,1000.65
2023-04-19T07:59:04.157Z,1000.62
2023-04-19T07:59:53.664Z,1000.59
2023-04-19T08:00:51.684Z,1000.62
2023-04-19T08:01:51.632Z,1000.77
2023-04-19T08:02:51.766Z,1000.61
2023-04-19T08:03:51.857Z,1000.67
2023-04-19T08:04:53.040Z,1000.72
2023-04-19T08:05:51.675Z,1000.78
2023-04-19T08:06:52.151Z,1000.77
2023-04-19T08:07:51.599Z,1000.80
2023-04-19T08:08:51.525Z,1000.66
2023-04-19T08:09:51.538Z,1000.61
2023-04-19T08:10:51.543Z,1000.73
2023-04-19T08:11:51.542Z,1000.61
2023-04-19T08:13:05.394Z,1000.65
2023-04-19T08:14:04.650Z,1000.69
2023-04-19T08:15:02.644Z,1000.78
2023-04-19T08:17:52.518Z,1000.61
2023-04-19T08:18:51.495Z,1000.67
2023-04-19T08:19:51.456Z,1000.57
2023-04-19T08:20:51.433Z,1000.59
2023-04-19T08:21:51.450Z,1000.63
2023-04-19T08:22:51.453Z,1000.59
2023-04-19T08:23:53.570Z,1000.68
2023-04-19T08:24:52.404Z,1000.71
2023-04-19T08:25:51.470Z,1000.66
2023-04-19T08:26:51.393Z,1000.68
2023-04-19T08:27:51.374Z,1000.57
2023-04-19T08:28:51.366Z,1000.57
2023-04-19T08:29:51.404Z,1000.55
2023-04-19T08:30:52.221Z,1000.57
2023-04-19T08:31:51.417Z,1000.83
2023-04-19T08:32:51.400Z,1000.49
2023-04-19T08:33:51.407Z,1000.52
2023-04-19T08:34:51.325Z,1000.63
2023-04-19T08:35:51.329Z,1000.53
2023-04-19T08:37:03.508Z,1000.46
2023-04-19T08:37:53.323Z,1000.51
2023-04-19T08:39:04.164Z,1000.45
2023-04-19T08:39:53.291Z,1000.42
2023-04-19T08:40:51.281Z,1000.73
2023-04-19T08:42:02.717Z,1000.67
2023-04-19T08:42:54.153Z,1000.67
2023-04-19T08:43:52.150Z,1000.57
2023-04-19T08:45:09.447Z,1000.59
2023-04-19T08:45:53.289Z,1000.57
2023-04-19T08:46:51.255Z,1000.47
2023-04-19T08:48:00.711Z,1000.72
2023-04-19T08:48:53.462Z,1000.40
2023-04-19T08:50:03.757Z,1000.53
2023-04-19T08:51:52.185Z,1000.65
2023-04-19T08:52:58.841Z,1000.54
2023-04-19T08:53:53.181Z,1000.47
2023-04-19T08:54:51.170Z,1000.58
2023-04-19T08:56:08.577Z,1000.60
2023-04-19T08:56:53.156Z,1000.31
2023-04-19T08:57:51.148Z,1000.44
2023-04-19T08:59:52.131Z,1000.39
2023-04-19T09:00:51.106Z,1000.42
2023-04-19T09:01:51.128Z,1000.47
2023-04-19T09:02:51.281Z,1000.39
2023-04-19T09:04:02.283Z,1000.41
2023-04-19T09:04:53.791Z,1000.28
2023-04-19T09:05:52.359Z,1000.42
2023-04-19T09:06:51.816Z,1000.39
2023-04-19T09:07:52.140Z,1000.33
2023-04-19T09:08:52.651Z,1000.34
2023-04-19T09:10:02.000Z,1000.38
2023-04-19T09:10:53.169Z,1000.32
2023-04-19T09:11:51.055Z,1000.37
2023-04-19T09:12:51.038Z,1000.30
2023-04-19T09:13:52.936Z,1000.39
2023-04-19T09:15:01.323Z,1000.32
2023-04-19T09:15:55.737Z,1000.25
2023-04-19T09:16:51.011Z,1000.50
2023-04-19T09:17:51.714Z,1000.28
2023-04-19T09:18:59.811Z,1000.19
2023-04-19T09:19:52.999Z,1000.29
2023-04-19T09:20:51.005Z,1000.25
2023-04-19T09:21:50.955Z,1000.29
2023-04-19T09:22:51.766Z,1000.47
2023-04-19T09:23:51.800Z,1000.24
2023-04-19T09:26:15.099Z,1000.23
2023-04-19T09:26:52.931Z,1000.20
2023-04-19T09:27:50.911Z,1000.08
2023-04-19T09:28:50.901Z,1000.15
2023-04-19T09:29:54.664Z,1000.18
2023-04-19T09:31:06.721Z,1000.31
2023-04-19T09:31:54.916Z,1000.12
2023-04-19T09:32:51.045Z,1000.09
2023-04-19T09:33:52.107Z,1000.14
2023-04-19T09:34:50.856Z,1000.29
2023-04-19T09:35:53.729Z,1000.09
2023-04-19T09:37:00.567Z,1000.07
2023-04-19T09:38:04.760Z,1000.04
2023-04-19T09:38:54.647Z,1000.26
2023-04-19T09:39:52.649Z,1000.11
2023-04-19T09:40:50.796Z,1000.04
2023-04-19T09:41:52.750Z,1000.08
2023-04-19T09:45:25.390Z,999.89
2023-04-19T09:45:52.781Z,999.91
2023-04-19T09:46:52.446Z,999.98
2023-04-19T09:47:51.773Z,1000.11
2023-04-19T09:48:50.740Z,1000.04
2023-04-19T09:49:51.010Z,999.97
2023-04-19T09:50:57.486Z,1000.11
2023-04-19T09:51:52.733Z,999.99
2023-04-19T09:52:51.655Z,1000.02
2023-04-19T09:53:50.688Z,1000.01
2023-04-19T09:54:50.671Z,1000.01
2023-04-19T09:56:00.664Z,1000.01
2023-04-19T09:56:56.156Z,1000.06
2023-04-19T09:57:51.666Z,1000.19
2023-04-19T09:58:58.656Z,999.91
2023-04-19T09:59:52.642Z,1000.10
2023-04-19T10:00:55.028Z,999.90
2023-04-19T10:01:52.687Z,1000.00
2023-04-19T10:02:52.051Z,999.78
2023-04-19T10:03:52.754Z,999.90
2023-04-19T10:05:53.284Z,999.93
2023-04-19T10:07:10.148Z,999.78
2023-04-19T10:07:54.186Z,999.94
2023-04-19T10:08:50.609Z,1000.01
2023-04-19T10:09:54.291Z,1000.03
2023-04-19T10:10:51.577Z,999.77
2023-04-19T10:11:52.237Z,999.69
2023-04-19T10:13:51.542Z,999.89
2023-04-19T10:14:50.582Z,999.70
2023-04-19T10:15:54.080Z,999.69
2023-04-19T10:16:54.383Z,999.72
2023-04-19T10:17:50.548Z,999.76
2023-04-19T10:18:50.765Z,999.73
2023-04-19T10:19:52.238Z,999.66
2023-04-19T10:20:50.488Z,999.61
2023-04-19T10:21:50.474Z,999.64
2023-04-19T10:22:50.463Z,999.56
2023-04-19T10:23:50.469Z,999.55
2023-04-19T10:24:50.456Z,999.53
2023-04-19T10:25:50.464Z,999.62
2023-04-19T10:26:50.444Z,999.54
2023-04-19T10:27:50.424Z,999.58
2023-04-19T10:28:50.457Z,999.59
2023-04-19T10:29:50.407Z,999.52
2023-04-19T10:30:50.423Z,999.62
2023-04-19T10:31:50.432Z,999.46
2023-04-19T10:32:50.440Z,999.46
2023-04-19T10:33:50.393Z,999.34
2023-04-19T10:34:50.409Z,999.34
2023-04-19T10:35:50.387Z,999.42
2023-04-19T10:36:50.358Z,999.36
2023-04-19T10:37:50.349Z,999.42
2023-04-19T10:38:50.426Z,999.30
2023-04-19T10:39:51.165Z,999.37
2023-04-19T10:40:50.324Z,999.41
2023-04-19T10:41:50.344Z,999.32
2023-04-19T10:42:50.307Z,999.19
2023-04-19T10:43:50.297Z,999.35
2023-04-19T10:44:50.291Z,999.41
2023-04-19T10:45:51.198Z,999.28
2023-04-19T10:46:50.284Z,999.25
2023-04-19T10:47:50.292Z,999.21
2023-04-19T10:48:50.253Z,999.24
2023-04-19T10:49:50.252Z,999.15
2023-04-19T10:50:52.748Z,999.49
2023-04-19T10:51:50.238Z,999.30
2023-04-19T10:52:50.259Z,999.34
2023-04-19T10:53:50.229Z,999.37
2023-04-19T10:54:50.592Z,999.17
2023-04-19T10:55:50.209Z,999.31
2023-04-19T10:56:50.229Z,999.04
2023-04-19T10:57:51.741Z,999.02
2023-04-19T10:58:50.186Z,999.15
2023-04-19T10:59:51.170Z,999.19
2023-04-19T11:00:50.182Z,999.14
2023-04-19T11:01:50.284Z,999.31
2023-04-19T11:02:50.271Z,999.00
2023-04-19T11:03:50.218Z,998.96
2023-04-19T11:04:50.150Z,998.91
2023-04-19T11:05:50.133Z,999.09
2023-04-19T11:06:51.759Z,999.12
2023-04-19T11:07:54.752Z,999.16
2023-04-19T11:08:51.670Z,998.90
2023-04-19T11:09:50.095Z,999.06
2023-04-19T11:10:51.245Z,999.02
2023-04-19T11:11:50.088Z,999.09
2023-04-19T11:12:50.074Z,999.04
2023-04-19T11:13:50.057Z,998.96
2023-04-19T11:14:50.062Z,999.22
2023-04-19T11:15:50.113Z,998.81
2023-04-19T11:16:50.075Z,998.94
2023-04-19T11:18:01.010Z,998.96
2023-04-19T11:18:52.761Z,998.82
2023-04-19T11:19:50.005Z,998.78
2023-04-19T11:20:50.041Z,998.83
2023-04-19T11:21:49.991Z,998.66
2023-04-19T11:22:50.050Z,998.70
2023-04-19T11:23:49.989Z,998.86
2023-04-19T11:24:50.025Z,998.80
2023-04-19T11:25:49.965Z,999.04
2023-04-19T11:26:49.975Z,998.75
2023-04-19T11:27:50.023Z,998.80
2023-04-19T11:28:49.936Z,998.86
2023-04-19T11:29:50.979Z,998.85
2023-04-19T11:30:49.922Z,998.75
2023-04-19T11:31:51.804Z,998.52
2023-04-19T11:32:51.504Z,999.02
2023-04-19T11:33:49.908Z,998.70
2023-04-19T11:34:49.896Z,998.68
2023-04-19T11:35:49.885Z,998.71
2023-04-19T11:36:51.674Z,998.63
2023-04-19T11:37:49.893Z,998.69
2023-04-19T11:38:57.745Z,998.83
2023-04-19T11:39:52.500Z,998.66
2023-04-19T11:40:50.844Z,998.63
2023-04-19T11:41:50.641Z,998.66
2023-04-19T11:42:50.856Z,998.51
2023-04-19T11:43:49.836Z,998.57
2023-04-19T11:44:49.825Z,998.64
2023-04-19T11:45:49.819Z,998.53
2023-04-19T11:46:49.851Z,998.56
2023-04-19T11:47:49.907Z,998.67
2023-04-19T11:48:49.793Z,998.59
2023-04-19T11:49:49.808Z,998.57
2023-04-19T11:50:49.769Z,998.37
2023-04-19T11:51:49.782Z,998.40
2023-04-19T11:52:49.771Z,998.36
2023-04-19T11:53:49.798Z,998.25
2023-04-19T11:54:49.744Z,998.46
2023-04-19T11:55:49.750Z,998.75
2023-04-19T11:56:49.739Z,998.43
2023-04-19T11:57:50.708Z,998.42
2023-04-19T11:58:49.753Z,998.43
2023-04-19T11:59:49.702Z,998.40
2023-04-19T12:00:49.704Z,998.62
2023-04-19T12:01:49.719Z,998.54
2023-04-19T12:02:49.852Z,998.43
2023-04-19T12:03:49.934Z,998.39
2023-04-19T12:04:49.778Z,998.49
2023-04-19T12:05:51.294Z,998.37
2023-04-19T12:06:50.183Z,998.55
2023-04-19T12:07:49.652Z,998.46
2023-04-19T12:08:49.648Z,998.55
2023-04-19T12:09:49.664Z,998.57
2023-04-19T12:10:49.613Z,998.42
2023-04-19T12:11:49.613Z,998.38
2023-04-19T12:12:49.598Z,998.43
2023-04-19T12:13:49.594Z,998.36
2023-04-19T12:14:49.580Z,998.41
2023-04-19T12:15:49.584Z,998.55
2023-04-19T12:16:49.630Z,998.37
2023-04-19T12:17:56.898Z,998.31
2023-04-19T12:18:52.196Z,998.36
2023-04-19T12:19:49.543Z,998.29